Time;durP1;ratioP1;P1;durP2;ratioP2;P2;SDS_P1;SDS_P2;PMS_P1;PMS_P2;Temp;Humidity;BMP_temperature;BMP_pressure;BME280_temperature;BME280_humidity;BME280_pressure;Samples;Min_cycle;Max_cycle;Signal;HPM_P1;HPM_P2
2022/11/17 00:00:46;;;;;;;9.35;2.72;;;;;;;11.36;100.00;98999.66;2615118;36;20034;-51
2022/11/17 00:03:15;;;;;;;6.65;3.03;;;;;;;11.25;100.00;98992.03;2615316;36;20026;-57
2022/11/17 00:05:43;;;;;;;6.68;2.45;;;;;;;11.28;100.00;98980.88;2616203;31;20031;-49
2022/11/17 00:08:12;;;;;;;6.65;3.25;;;;;;;11.32;100.00;98974.09;2614776;36;20061;-55
2022/11/17 00:10:40;;;;;;;8.23;2.97;;;;;;;11.35;100.00;98976.41;2615853;31;20019;-54
2022/11/17 00:15:52;;;;;;;8.60;2.63;;;;;;;11.05;100.00;98960.28;2614770;36;20142;-50
2022/11/17 00:23:57;;;;;;;5.57;2.85;;;;;;;11.16;100.00;98935.59;2614682;36;20030;-55
2022/11/17 00:26:27;;;;;;;8.20;3.10;;;;;;;11.03;100.00;98913.88;2613765;31;20049;-54
2022/11/17 00:29:01;;;;;;;8.40;3.25;;;;;;;11.16;100.00;98900.59;2611975;36;20192;-53
2022/11/17 00:34:14;;;;;;;8.10;3.90;;;;;;;11.14;100.00;98883.78;2611470;36;20037;-57
2022/11/17 00:36:45;;;;;;;5.65;3.13;;;;;;;11.00;100.00;98874.72;2612114;36;20042;-55
2022/11/17 00:39:15;;;;;;;7.30;4.03;;;;;;;11.08;100.00;98865.69;2611312;36;20035;-54
2022/11/17 00:41:44;;;;;;;7.13;3.97;;;;;;;11.05;100.00;98853.44;2611549;36;20479;-54
2022/11/17 00:44:17;;;;;;;10.43;3.20;;;;;;;11.19;100.00;98851.75;2612182;36;20551;-58
2022/11/17 00:46:46;;;;;;;8.73;3.50;;;;;;;11.09;100.00;98843.13;2611161;36;20080;-53
2022/11/17 00:49:14;;;;;;;9.70;5.15;;;;;;;11.00;100.00;98834.34;2611453;36;20038;-55
2022/11/17 00:51:43;;;;;;;6.75;3.50;;;;;;;11.07;100.00;98820.97;2611591;36;20027;-51
2022/11/17 00:54:14;;;;;;;10.23;3.95;;;;;;;11.02;100.00;98810.75;2611418;36;20033;-50
2022/11/17 00:56:42;;;;;;;7.18;3.92;;;;;;;11.03;100.00;98808.91;2611572;36;20045;-55
2022/11/17 00:59:11;;;;;;;8.07;3.63;;;;;;;11.06;100.00;98800.44;2611660;36;20035;-55
2022/11/17 01:01:42;;;;;;;9.35;3.83;;;;;;;10.90;100.00;98811.44;2611050;36;20049;-50
2022/11/17 01:04:11;;;;;;;10.10;3.80;;;;;;;11.01;100.00;98797.47;2611722;36;20594;-49
2022/11/17 01:06:41;;;;;;;6.73;4.00;;;;;;;11.01;100.00;98789.41;2612976;36;20023;-55
2022/11/17 01:09:14;;;;;;;5.35;3.70;;;;;;;10.79;100.00;98773.22;2615674;36;20431;-55
2022/11/17 01:11:43;;;;;;;9.32;4.15;;;;;;;11.00;100.00;98768.91;2613620;36;20574;-53
2022/11/17 01:14:14;;;;;;;8.23;3.83;;;;;;;10.85;100.00;98774.31;2615597;31;20062;-54
2022/11/17 01:16:46;;;;;;;10.23;4.47;;;;;;;11.04;100.00;98770.16;2614631;36;20023;-57
2022/11/17 01:19:16;;;;;;;10.57;4.95;;;;;;;10.99;100.00;98745.69;2616107;36;20041;-49
2022/11/17 01:21:45;;;;;;;8.20;4.05;;;;;;;10.91;100.00;98743.13;2614571;36;20033;-50
2022/11/17 01:24:15;;;;;;;7.75;3.80;;;;;;;10.82;100.00;98735.19;2616069;31;20052;-50
2022/11/17 01:26:43;;;;;;;;;;;;;;;10.96;100.00;98730.75;2615010;36;20423;-58
2022/11/17 01:29:14;;;;;;;8.45;4.40;;;;;;;10.85;100.00;98729.41;2614816;36;19950;-50
2022/11/17 01:31:51;;;;;;;9.70;4.40;;;;;;;10.94;100.00;98721.19;2614306;36;20049;-50
2022/11/17 01:34:20;;;;;;;5.97;4.40;;;;;;;10.83;100.00;98709.91;2615141;31;20030;-53
2022/11/17 01:39:31;;;;;;;9.65;4.32;;;;;;;11.05;100.00;98699.16;2614833;36;20029;-50
2022/11/17 01:42:03;;;;;;;6.97;4.13;;;;;;;10.99;100.00;98686.47;2615352;36;20034;-49
2022/11/17 01:45:00;;;;;;;7.65;4.80;;;;;;;11.01;100.00;98679.88;2614920;31;20034;-48
2022/11/17 01:47:43;;;;;;;6.32;3.88;;;;;;;10.95;100.00;98682.50;2615143;36;20617;-54
2022/11/17 01:50:21;;;;;;;7.30;3.65;;;;;;;10.99;100.00;98671.16;2614749;36;20027;-52
2022/11/17 01:52:52;;;;;;;7.05;3.90;;;;;;;11.04;100.00;98665.19;2614431;36;20037;-48
2022/11/17 01:55:23;;;;;;;6.13;3.85;;;;;;;11.00;100.00;98672.81;2615222;36;20035;-52
2022/11/17 01:57:55;;;;;;;8.15;3.38;;;;;;;10.95;100.00;98652.91;2614728;36;20034;-50
2022/11/17 02:00:24;;;;;;;6.03;3.30;;;;;;;10.91;100.00;98638.16;2614911;31;20042;-53
2022/11/17 02:02:55;;;;;;;6.68;3.58;;;;;;;10.98;100.00;98641.75;2614862;36;20027;-48
2022/11/17 02:05:39;;;;;;;5.95;3.22;;;;;;;10.92;100.00;98626.38;2616070;36;20053;-53
2022/11/17 02:08:08;;;;;;;5.53;3.28;;;;;;;11.00;100.00;98637.00;2614843;31;20030;-52
2022/11/17 02:10:37;;;;;;;5.53;2.65;;;;;;;10.96;100.00;98630.34;2615590;36;20030;-54
2022/11/17 02:13:06;;;;;;;7.07;3.15;;;;;;;11.10;100.00;98637.50;2615375;36;20035;-52
2022/11/17 02:15:34;;;;;;;5.50;2.55;;;;;;;11.07;100.00;98640.59;2614561;36;20331;-50
2022/11/17 02:18:07;;;;;;;7.75;2.80;;;;;;;11.07;100.00;98634.34;2615184;36;20034;-55
2022/11/17 02:20:44;;;;;;;6.00;2.85;;;;;;;10.99;100.00;98624.56;2615547;31;20070;-50
2022/11/17 02:23:38;;;;;;;9.38;3.00;;;;;;;11.00;100.00;98624.38;2614316;31;20034;-47
2022/11/17 02:26:30;;;;;;;4.50;3.10;;;;;;;11.15;100.00;98621.59;2620465;36;20061;-47
2022/11/17 02:29:07;;;;;;;5.40;2.72;;;;;;;11.15;100.00;98620.78;2614649;36;20034;-49
2022/11/17 02:31:45;;;;;;;5.65;3.10;;;;;;;11.02;100.00;98618.78;2614804;36;20022;-49
2022/11/17 02:34:25;;;;;;;5.53;2.80;;;;;;;11.08;100.00;98603.72;2614840;36;20069;-55
2022/11/17 02:37:00;;;;;;;4.90;2.72;;;;;;;11.13;100.00;98591.34;2615485;36;20583;-47
2022/11/17 02:39:39;;;;;;;4.43;3.00;;;;;;;11.05;100.00;98603.06;2615272;36;20404;-50
2022/11/17 02:42:12;;;;;;;4.55;3.25;;;;;;;11.18;100.00;98599.66;2614916;31;20034;-58
2022/11/17 02:44:46;;;;;;;4.88;3.28;;;;;;;11.18;100.00;98604.22;2614701;36;20030;-55
2022/11/17 02:47:20;;;;;;;4.95;2.97;;;;;;;11.12;100.00;98605.84;2614081;36;20034;-52
2022/11/17 02:49:53;;;;;;;8.75;3.00;;;;;;;11.19;100.00;98612.09;2615214;36;20026;-51
2022/11/17 02:52:23;;;;;;;5.03;2.95;;;;;;;11.18;100.00;98601.53;2611613;36;20034;-48
2022/11/17 02:54:51;;;;;;;7.72;3.15;;;;;;;11.29;100.00;98584.84;2613371;31;20408;-55
2022/11/17 02:57:29;;;;;;;3.47;2.78;;;;;;;11.16;100.00;98574.81;2612765;36;20069;-50
2022/11/17 03:00:03;;;;;;;5.80;2.88;;;;;;;11.25;100.00;98580.03;2616085;36;20026;-52
2022/11/17 03:02:48;;;;;;;6.30;3.38;;;;;;;11.31;100.00;98571.19;2614109;31;20042;-51
2022/11/17 03:05:24;;;;;;;4.47;2.85;;;;;;;11.24;100.00;98559.53;2615860;36;20034;-52
2022/11/17 03:08:15;;;;;;;5.07;3.25;;;;;;;11.37;100.00;98555.06;2614434;36;20061;-50
2022/11/17 03:10:53;;;;;;;8.02;3.45;;;;;;;11.35;100.00;98557.13;2613751;31;20054;-51
2022/11/17 03:13:27;;;;;;;7.32;3.38;;;;;;;11.45;100.00;98558.63;2615613;36;20030;-51
2022/11/17 03:16:06;;;;;;;5.60;2.85;;;;;;;11.38;100.00;98562.09;2615494;36;20030;-50
2022/11/17 03:18:37;;;;;;;;;;;;;;;11.46;100.00;98552.22;2615060;31;20547;-54
2022/11/17 03:21:12;;;;;;;7.60;2.97;;;;;;;11.41;100.00;98555.50;2615322;36;19955;-54
2022/11/17 03:23:48;;;;;;;7.55;3.13;;;;;;;11.40;100.00;98545.75;2614824;36;20042;-52
2022/11/17 03:26:21;;;;;;;6.22;3.45;;;;;;;11.42;100.00;98538.28;2614902;31;20065;-51
2022/11/17 03:28:49;;;;;;;5.72;3.20;;;;;;;11.37;100.00;98543.47;2614702;36;20022;-50
2022/11/17 03:31:22;;;;;;;7.13;2.93;;;;;;;11.42;100.00;98557.16;2615243;36;20038;-52
2022/11/17 03:33:52;;;;;;;4.60;3.30;;;;;;;11.52;100.00;98549.53;2615779;36;20035;-53
2022/11/17 03:36:24;;;;;;;5.45;3.05;;;;;;;11.55;100.00;98542.91;2614336;36;20037;-50
2022/11/17 03:38:59;;;;;;;5.78;2.85;;;;;;;11.46;100.00;98549.50;2614176;36;20030;-50
2022/11/17 03:41:32;;;;;;;3.83;2.80;;;;;;;11.48;100.00;98539.34;2614613;36;20041;-51
2022/11/17 03:44:03;;;;;;;4.72;3.03;;;;;;;11.64;100.00;98535.50;2615103;36;20034;-51
2022/11/17 03:46:36;;;;;;;5.05;3.40;;;;;;;11.52;100.00;98536.06;2606568;31;20027;-51
2022/11/17 03:49:14;;;;;;;4.35;3.40;;;;;;;11.55;100.00;98537.53;2615434;36;20034;-53
2022/11/17 03:51:43;;;;;;;5.70;3.80;;;;;;;11.61;100.00;98527.81;2613635;36;20031;-52
2022/11/17 03:54:12;;;;;;;5.13;3.60;;;;;;;11.49;100.00;98525.69;2614350;36;20043;-55
2022/11/17 03:56:50;;;;;;;3.70;3.30;;;;;;;11.44;100.00;98528.16;2614850;31;20038;-52
2022/11/17 03:59:31;;;;;;;4.10;3.60;;;;;;;11.43;100.00;98515.72;2615106;54;20034;-52
2022/11/17 04:02:02;;;;;;;4.50;3.42;;;;;;;11.30;100.00;98511.09;2615469;31;20030;-50
2022/11/17 04:05:04;;;;;;;5.05;3.95;;;;;;;11.59;100.00;98501.09;2615401;31;20070;-52
2022/11/17 04:07:19;;;;;;;4.37;3.43;;;;;;;11.38;100.00;98497.47;2615629;31;20046;-55
2022/11/17 04:09:47;;;;;;;5.07;3.22;;;;;;;11.42;100.00;98511.34;2614447;36;20030;-53
2022/11/17 04:17:39;;;;;;;5.97;3.92;;;;;;;11.49;100.00;98501.44;2614518;36;20039;-53
2022/11/17 04:20:09;;;;;;;5.80;3.42;;;;;;;11.34;100.00;98500.75;2615431;31;20049;-53
2022/11/17 04:22:38;;;;;;;4.35;3.70;;;;;;;11.50;100.00;98495.03;2615071;31;20034;-51
2022/11/17 04:25:07;;;;;;;7.45;3.80;;;;;;;11.48;100.00;98497.09;2615534;36;20065;-52
2022/11/17 04:30:16;;;;;;;4.95;3.40;;;;;;;11.45;100.00;98486.72;2616247;36;20458;-51
2022/11/17 04:32:47;;;;;;;5.82;4.40;;;;;;;11.50;100.00;98489.66;2616510;31;20536;-52
2022/11/17 04:35:15;;;;;;;8.35;4.22;;;;;;;11.49;100.00;98474.50;2614851;31;20034;-53
2022/11/17 04:37:44;;;;;;;6.85;4.53;;;;;;;11.59;100.00;98476.84;2615470;36;20034;-51
2022/11/17 04:40:13;;;;;;;5.18;4.53;;;;;;;11.54;100.00;98480.16;2614284;31;20041;-53
2022/11/17 04:42:38;;;;;;;5.38;4.63;;;;;;;11.65;100.00;98481.41;2614062;36;20034;-56
2022/11/17 04:45:08;;;;;;;9.48;5.43;;;;;;;11.65;100.00;98476.03;2614285;36;20149;-54
2022/11/17 04:47:36;;;;;;;;;;;;;;;11.57;100.00;98473.50;2615392;36;20031;-51
2022/11/17 04:50:08;;;;;;;7.55;4.88;;;;;;;11.52;100.00;98466.03;2615100;36;19951;-53
2022/11/17 04:52:36;;;;;;;6.53;4.78;;;;;;;11.64;100.00;98462.75;2614059;36;20030;-50
2022/11/17 04:55:05;;;;;;;8.93;5.45;;;;;;;11.62;100.00;98452.19;2614805;36;20042;-54
2022/11/17 04:57:33;;;;;;;7.97;5.38;;;;;;;11.58;100.00;98438.28;2615662;36;20027;-55
2022/11/17 05:00:02;;;;;;;5.40;4.90;;;;;;;11.64;100.00;98438.50;2616288;31;20419;-48
2022/11/17 05:02:30;;;;;;;5.30;4.20;;;;;;;11.74;100.00;98436.25;2611488;31;20031;-50
2022/11/17 05:04:58;;;;;;;5.43;4.93;;;;;;;11.67;100.00;98430.84;2614440;36;20046;-53
2022/11/17 05:07:29;;;;;;;5.25;4.40;;;;;;;11.68;100.00;98439.78;2615504;31;20037;-55
2022/11/17 05:09:58;;;;;;;6.85;4.60;;;;;;;11.71;100.00;98450.16;2615002;36;20026;-56
2022/11/17 05:15:08;;;;;;;8.90;5.13;;;;;;;11.56;100.00;98443.03;2615323;36;20638;-54
2022/11/17 05:17:34;;;;;;;5.00;4.03;;;;;;;11.67;100.00;98444.31;2613185;36;20075;-55
2022/11/17 05:20:02;;;;;;;6.20;4.57;;;;;;;11.69;100.00;98426.09;2614593;36;20042;-54
2022/11/17 05:25:14;;;;;;;5.70;4.32;;;;;;;11.83;100.00;98426.94;2615031;36;20074;-54
2022/11/17 05:27:42;;;;;;;4.30;3.75;;;;;;;11.71;100.00;98418.63;2613844;36;20030;-50
2022/11/17 05:30:12;;;;;;;4.30;3.90;;;;;;;11.73;100.00;98423.81;2613297;36;20038;-52
2022/11/17 05:32:41;;;;;;;6.20;4.28;;;;;;;11.81;100.00;98420.94;2614319;36;20014;-49
2022/11/17 05:35:10;;;;;;;7.25;4.63;;;;;;;11.75;100.00;98421.75;2613295;31;20030;-49
2022/11/17 05:37:42;;;;;;;5.63;4.10;;;;;;;11.84;100.00;98427.78;2614894;31;20042;-55
2022/11/17 05:40:12;;;;;;;4.22;3.67;;;;;;;11.61;100.00;98411.97;2613460;31;20571;-51
2022/11/17 05:42:40;;;;;;;6.07;4.18;;;;;;;11.68;100.00;98415.53;2613903;31;20512;-52
2022/11/17 05:45:10;;;;;;;5.50;4.68;;;;;;;11.71;100.00;98417.81;2614879;36;20030;-50
2022/11/17 05:47:38;;;;;;;5.97;4.85;;;;;;;11.61;100.00;98426.28;2612087;36;20046;-48
2022/11/17 05:50:08;;;;;;;9.60;5.72;;;;;;;11.61;100.00;98425.44;2614535;36;20027;-54
2022/11/17 05:52:36;;;;;;;;;;;;;;;11.70;100.00;98425.06;2613754;36;20031;-50
2022/11/17 05:55:08;;;;;;;6.95;5.05;;;;;;;11.64;100.00;98419.66;2613556;36;19951;-50
2022/11/17 05:57:36;;;;;;;12.23;5.65;;;;;;;11.55;100.00;98422.50;2615605;36;20578;-55
2022/11/17 06:00:06;;;;;;;7.07;5.80;;;;;;;11.51;100.00;98426.66;2616841;31;20538;-49
2022/11/17 06:02:40;;;;;;;7.90;5.78;;;;;;;11.76;100.00;98415.31;2613919;36;20038;-52
2022/11/17 06:05:09;;;;;;;7.57;6.03;;;;;;;11.74;100.00;98409.31;2614864;36;20043;-49
2022/11/17 06:07:38;;;;;;;8.52;5.53;;;;;;;11.60;100.00;98411.16;2613160;36;20026;-51
2022/11/17 06:10:10;;;;;;;7.30;6.25;;;;;;;11.62;100.00;98398.31;2612561;36;20035;-55
2022/11/17 06:12:38;;;;;;;9.02;6.35;;;;;;;11.76;100.00;98391.06;2609723;36;20037;-52
2022/11/17 06:15:08;;;;;;;7.30;6.07;;;;;;;11.69;100.00;98391.06;2614476;36;20061;-52
2022/11/17 06:17:44;;;;;;;6.90;5.88;;;;;;;11.68;100.00;98388.56;2614772;36;20440;-50
2022/11/17 06:20:18;;;;;;;7.32;6.18;;;;;;;11.66;100.00;98396.88;2614952;36;20034;-55
2022/11/17 06:22:47;;;;;;;6.20;5.32;;;;;;;11.62;100.00;98397.47;2615278;36;20030;-52
2022/11/17 06:25:19;;;;;;;7.38;5.35;;;;;;;11.69;100.00;98403.69;2614211;31;20038;-58
2022/11/17 06:27:49;;;;;;;7.78;5.22;;;;;;;11.72;100.00;98400.63;2612890;36;20042;-54
2022/11/17 06:30:18;;;;;;;7.80;5.40;;;;;;;11.67;100.00;98397.69;2615251;31;20597;-58
2022/11/17 06:32:49;;;;;;;9.07;4.60;;;;;;;11.68;100.00;98399.34;2614564;31;20031;-53
2022/11/17 06:35:18;;;;;;;7.40;5.78;;;;;;;11.73;100.00;98397.72;2614644;36;20039;-60
2022/11/17 06:37:46;;;;;;;6.22;4.85;;;;;;;11.77;100.00;98394.59;2614882;36;20481;-51
2022/11/17 06:40:17;;;;;;;5.50;4.60;;;;;;;11.67;100.00;98398.50;2614118;31;20027;-50
2022/11/17 06:45:27;;;;;;;6.53;4.53;;;;;;;11.69;100.00;98401.00;2593591;36;20041;-55
2022/11/17 06:47:55;;;;;;;6.00;4.30;;;;;;;11.71;100.00;98397.06;2613949;36;20065;-51
2022/11/17 06:50:24;;;;;;;5.45;4.30;;;;;;;11.75;100.00;98401.03;2611106;31;20038;-49
2022/11/17 06:52:52;;;;;;;6.40;4.00;;;;;;;11.78;100.00;98396.25;2614513;36;20411;-49
2022/11/17 06:55:23;;;;;;;5.80;4.55;;;;;;;11.75;100.00;98400.19;2608542;36;20461;-48
2022/11/17 06:57:51;;;;;;;7.60;4.20;;;;;;;11.73;100.00;98407.66;2609552;31;20280;-49
2022/11/17 07:00:21;;;;;;;5.35;4.00;;;;;;;11.67;100.00;98409.28;2607642;31;20596;-53
2022/11/17 07:02:49;;;;;;;5.28;4.18;;;;;;;11.75;100.00;98408.28;2607880;31;20034;-58
2022/11/17 07:05:18;;;;;;;5.23;3.30;;;;;;;11.71;100.00;98417.81;2608617;36;20090;-53
2022/11/17 07:07:46;;;;;;;5.30;2.78;;;;;;;11.77;100.00;98408.91;2608972;31;20326;-47
2022/11/17 07:10:14;;;;;;;4.60;2.72;;;;;;;11.87;100.00;98419.28;2609469;31;20026;-54
2022/11/17 07:12:47;;;;;;;6.55;2.88;;;;;;;11.88;100.00;98424.47;2612560;36;20566;-51
2022/11/17 07:15:15;;;;;;;7.43;2.55;;;;;;;11.85;100.00;98415.97;2607866;36;20034;-55
2022/11/17 07:17:43;;;;;;;8.90;3.23;;;;;;;11.97;100.00;98408.13;2613828;31;20042;-55
2022/11/17 07:20:13;;;;;;;5.55;2.63;;;;;;;11.96;100.00;98406.50;2613744;36;20030;-54
2022/11/17 07:22:42;;;;;;;;;;;;;;;11.84;100.00;98409.75;2610319;36;20455;-55
2022/11/17 07:25:13;;;;;;;4.53;2.42;;;;;;;11.98;100.00;98407.09;2608875;36;19950;-52
2022/11/17 07:27:41;;;;;;;7.25;2.55;;;;;;;11.91;100.00;98415.13;2608558;36;20650;-53
2022/11/17 07:30:13;;;;;;;3.63;1.60;;;;;;;11.74;100.00;98415.53;2606249;31;20030;-52
2022/11/17 07:32:42;;;;;;;3.45;1.85;;;;;;;11.82;100.00;98414.53;2606160;36;20030;-52
2022/11/17 07:35:11;;;;;;;4.45;2.10;;;;;;;11.82;100.00;98417.22;2606755;36;20034;-54
2022/11/17 07:37:39;;;;;;;3.45;1.80;;;;;;;11.92;100.00;98412.25;2610320;36;20045;-50
2022/11/17 07:40:09;;;;;;;4.70;2.15;;;;;;;11.81;100.00;98415.56;2613084;36;20035;-54
2022/11/17 07:42:37;;;;;;;4.63;2.05;;;;;;;11.75;100.00;98414.50;2614098;36;20060;-54
2022/11/17 07:45:08;;;;;;;5.75;2.08;;;;;;;11.79;100.00;98412.22;2608254;31;20034;-51
2022/11/17 07:47:39;;;;;;;4.93;2.10;;;;;;;11.77;100.00;98429.66;2607658;36;20043;-57
2022/11/17 07:50:08;;;;;;;4.30;1.83;;;;;;;11.77;100.00;98422.38;2613510;36;20034;-53
2022/11/17 07:52:36;;;;;;;7.10;2.08;;;;;;;11.74;100.00;98426.31;2612881;36;20574;-51
2022/11/17 07:55:05;;;;;;;6.07;2.35;;;;;;;11.72;100.00;98443.72;2608825;36;20444;-55
2022/11/17 07:57:33;;;;;;;5.10;2.10;;;;;;;11.66;100.00;98442.66;2607159;36;20057;-48
2022/11/17 08:00:02;;;;;;;6.93;2.28;;;;;;;11.75;100.00;98437.94;2614168;36;20037;-51
2022/11/17 08:02:30;;;;;;;4.65;2.40;;;;;;;11.74;100.00;98436.25;2614309;36;20042;-49
2022/11/17 08:05:01;;;;;;;9.10;2.50;;;;;;;11.68;100.00;98437.06;2614708;36;20436;-56
2022/11/17 08:07:31;;;;;;;6.70;2.40;;;;;;;11.90;100.00;98441.28;2614366;36;20023;-51
2022/11/17 08:10:02;;;;;;;4.50;2.10;;;;;;;11.87;100.00;98438.97;2612833;36;20933;-51
2022/11/17 08:12:30;;;;;;;6.00;1.90;;;;;;;11.82;100.00;98449.56;2613087;36;20845;-57
2022/11/17 08:14:58;;;;;;;5.32;1.90;;;;;;;11.62;100.00;98440.59;2613624;36;20574;-53
2022/11/17 08:17:28;;;;;;;8.02;2.08;;;;;;;11.70;100.00;98454.72;2613612;31;20030;-50
2022/11/17 08:19:56;;;;;;;;;;;;;;;11.77;100.00;98456.59;2612949;36;20555;-50
2022/11/17 08:22:27;;;;;;;3.22;1.60;;;;;;;11.69;100.00;98461.13;2612718;36;20444;-54
2022/11/17 08:24:55;;;;;;;5.40;1.90;;;;;;;11.60;100.00;98456.97;2612704;36;20034;-49
2022/11/17 08:27:23;;;;;;;8.18;1.77;;;;;;;11.80;100.00;98465.09;2613288;36;20626;-52
2022/11/17 08:29:52;;;;;;;6.32;1.75;;;;;;;11.67;100.00;98465.06;2608617;36;20038;-54
2022/11/17 08:32:21;;;;;;;6.85;2.45;;;;;;;11.48;100.00;98459.38;2607469;31;20707;-52
2022/11/17 08:34:49;;;;;;;2.03;1.48;;;;;;;11.46;100.00;98461.44;2613038;31;20050;-53
2022/11/17 08:37:17;;;;;;;3.00;1.80;;;;;;;11.55;100.00;98478.28;2609145;31;20423;-54
2022/11/17 08:39:48;;;;;;;4.80;1.58;;;;;;;11.70;100.00;98476.28;2612139;36;20061;-54
2022/11/17 08:42:19;;;;;;;3.90;1.77;;;;;;;11.63;100.00;98474.56;2610545;36;20553;-52
2022/11/17 08:44:47;;;;;;;7.35;1.80;;;;;;;11.67;100.00;98475.81;2612244;36;20034;-50
2022/11/17 08:47:15;;;;;;;4.95;1.60;;;;;;;11.68;100.00;98485.59;2606140;36;20103;-51
2022/11/17 08:49:44;;;;;;;4.82;1.77;;;;;;;11.54;100.00;98482.84;2599406;36;20065;-50
2022/11/17 08:52:12;;;;;;;4.90;1.48;;;;;;;11.58;100.00;98476.00;2610247;36;20042;-48
2022/11/17 08:54:40;;;;;;;5.65;1.80;;;;;;;11.63;100.00;98488.03;2609557;36;20593;-56
2022/11/17 08:57:11;;;;;;;5.25;1.90;;;;;;;11.55;100.00;98487.16;2599964;36;20598;-55
2022/11/17 08:59:39;;;;;;;5.13;1.70;;;;;;;11.67;100.00;98483.91;2607034;36;20034;-51
2022/11/17 09:02:08;;;;;;;3.33;1.50;;;;;;;11.82;100.00;98481.91;2606218;36;20043;-49
2022/11/17 09:04:36;;;;;;;3.63;1.58;;;;;;;11.57;100.00;98490.50;2609804;36;20034;-51
2022/11/17 09:07:04;;;;;;;5.63;1.95;;;;;;;11.69;100.00;98492.59;2608063;36;20038;-50
2022/11/17 09:09:33;;;;;;;3.42;1.77;;;;;;;11.56;100.00;98505.00;2609952;31;20034;-50
2022/11/17 09:12:01;;;;;;;3.63;1.40;;;;;;;11.61;100.00;98501.72;2605444;36;20590;-51
2022/11/17 09:14:33;;;;;;;6.95;1.45;;;;;;;11.61;100.00;98498.19;2605475;36;20035;-55
2022/11/17 09:17:01;;;;;;;4.50;1.83;;;;;;;11.57;100.00;98493.22;2608536;36;20942;-49
2022/11/17 09:19:29;;;;;;;3.20;1.60;;;;;;;11.53;100.00;98500.03;2611738;36;20424;-49
2022/11/17 09:21:58;;;;;;;7.23;2.10;;;;;;;11.27;100.00;98502.59;2605151;36;20030;-50
2022/11/17 09:24:27;;;;;;;4.90;2.05;;;;;;;11.30;100.00;98505.69;2609121;36;20077;-50
2022/11/17 09:26:56;;;;;;;4.97;1.83;;;;;;;11.30;100.00;98515.66;2604698;36;20551;-53
2022/11/17 09:29:25;;;;;;;8.05;3.53;;;;;;;11.25;100.00;98508.19;2604885;36;20426;-52
2022/11/17 09:31:56;;;;;;;4.68;2.25;;;;;;;11.42;100.00;98514.06;2605816;36;20038;-55
2022/11/17 09:34:25;;;;;;;5.55;2.13;;;;;;;11.48;100.00;98512.44;2608538;36;20057;-52
2022/11/17 09:36:53;;;;;;;5.10;1.83;;;;;;;11.44;100.00;98513.84;2605990;36;20056;-50
2022/11/17 09:39:21;;;;;;;5.90;2.00;;;;;;;11.30;100.00;98521.03;2612232;36;20038;-49
2022/11/17 09:41:53;;;;;;;3.83;1.90;;;;;;;11.38;100.00;98528.94;2608805;36;20759;-56
2022/11/17 09:44:29;;;;;;;6.47;2.30;;;;;;;11.39;100.00;98536.00;2606494;31;20964;-50
2022/11/17 09:47:07;;;;;;;5.05;2.00;;;;;;;11.54;100.00;98535.88;2608445;36;20034;-50
2022/11/17 09:49:46;;;;;;;4.32;2.03;;;;;;;11.55;100.00;98546.44;2611972;36;20034;-56
2022/11/17 09:52:20;;;;;;;6.68;2.10;;;;;;;11.58;100.00;98550.59;2607133;36;20041;-57
2022/11/17 09:54:53;;;;;;;4.88;2.33;;;;;;;11.78;100.00;98539.94;2610468;36;20038;-52
2022/11/17 09:57:29;;;;;;;6.03;2.80;;;;;;;11.58;100.00;98551.44;2604139;31;20057;-49
2022/11/17 10:00:17;;;;;;;7.40;3.10;;;;;;;11.82;100.00;98554.66;2607181;36;20034;-52
2022/11/17 10:02:49;;;;;;;7.90;2.70;;;;;;;11.90;100.00;98550.97;2612663;36;20930;-55
2022/11/17 10:05:22;;;;;;;8.48;2.97;;;;;;;11.65;100.00;98556.84;2614014;31;20030;-54
2022/11/17 10:07:53;;;;;;;6.88;2.70;;;;;;;11.66;100.00;98558.53;2607273;36;20039;-53
2022/11/17 10:10:24;;;;;;;6.25;2.55;;;;;;;11.82;100.00;98551.97;2613121;36;20046;-54
2022/11/17 10:12:57;;;;;;;6.68;2.67;;;;;;;11.81;100.00;98555.69;2612673;36;20035;-51
2022/11/17 10:15:31;;;;;;;5.90;2.53;;;;;;;11.79;100.00;98565.81;2613395;36;20539;-55
2022/11/17 10:18:01;;;;;;;5.97;2.70;;;;;;;11.86;100.00;98561.31;2631281;36;20031;-51
2022/11/17 10:20:30;;;;;;;4.72;2.53;;;;;;;11.75;100.00;98562.72;2612481;31;20042;-58
2022/11/17 10:22:59;;;;;;;4.77;2.43;;;;;;;11.78;100.00;98566.88;2614018;36;20057;-51
2022/11/17 10:25:39;;;;;;;6.57;2.40;;;;;;;11.72;100.00;98571.19;2613605;36;20893;-50
2022/11/17 10:28:09;;;;;;;4.63;2.28;;;;;;;11.68;100.00;98571.81;2614425;36;20030;-56
2022/11/17 10:30:38;;;;;;;6.07;2.88;;;;;;;11.74;100.00;98577.22;2614077;36;20060;-50
2022/11/17 10:33:09;;;;;;;5.57;2.55;;;;;;;11.61;100.00;98582.53;2614985;36;20484;-49
2022/11/17 10:35:38;;;;;;;5.68;2.95;;;;;;;11.49;100.00;98593.03;2606258;36;20042;-59
2022/11/17 10:38:14;;;;;;;7.18;2.67;;;;;;;11.71;100.00;98599.16;2610330;31;21892;-55
2022/11/17 10:40:50;;;;;;;3.67;1.88;;;;;;;11.62;100.00;98599.56;2614551;36;20045;-50
2022/11/17 10:43:27;;;;;;;4.13;1.92;;;;;;;11.41;100.00;98603.97;2614341;36;20034;-53
2022/11/17 10:45:58;;;;;;;7.82;2.75;;;;;;;11.53;100.00;98607.78;2614621;36;20439;-51
2022/11/17 10:48:32;;;;;;;7.60;3.22;;;;;;;11.79;100.00;98606.25;2614221;36;20031;-50
2022/11/17 10:51:03;;;;;;;9.55;4.28;;;;;;;11.83;100.00;98599.44;2612517;36;20273;-53
2022/11/17 10:53:35;;;;;;;6.93;2.85;;;;;;;11.88;100.00;98598.84;2612671;36;20045;-48
2022/11/17 10:56:08;;;;;;;5.75;2.40;;;;;;;11.79;100.00;98603.56;2610922;36;20039;-55
2022/11/17 10:58:59;;;;;;;7.40;3.10;;;;;;;11.69;100.00;98605.78;2610419;31;20947;-49
2022/11/17 11:01:35;;;;;;;6.85;3.08;;;;;;;11.64;100.00;98611.78;2611307;36;20800;-54
2022/11/17 11:04:28;;;;;;;4.60;2.00;;;;;;;11.43;100.00;98610.00;2608839;31;20045;-51
2022/11/17 11:07:09;;;;;;;5.70;2.00;;;;;;;11.44;100.00;98600.91;2601811;31;20053;-48
2022/11/17 11:09:41;;;;;;;6.68;2.17;;;;;;;11.37;100.00;98600.84;2600411;36;20035;-55
2022/11/17 11:12:18;;;;;;;6.63;3.13;;;;;;;11.30;100.00;98612.59;2606901;36;20039;-49
2022/11/17 11:14:52;;;;;;;7.38;2.53;;;;;;;11.40;100.00;98602.31;2608085;36;20424;-55
2022/11/17 11:17:22;;;;;;;5.43;2.20;;;;;;;11.21;100.00;98607.34;2605836;36;20471;-53
2022/11/17 11:19:55;;;;;;;6.85;2.13;;;;;;;11.40;100.00;98613.09;2607130;36;20578;-57
2022/11/17 11:22:36;;;;;;;7.90;2.50;;;;;;;11.56;100.00;98617.34;2605500;36;20038;-54
2022/11/17 11:25:14;;;;;;;6.05;2.90;;;;;;;11.55;100.00;98612.97;2606638;36;20034;-58
2022/11/17 11:27:54;;;;;;;6.38;3.13;;;;;;;11.64;100.00;98616.34;2607208;36;20035;-55
2022/11/17 11:30:22;;;;;;;3.25;2.15;;;;;;;11.67;100.00;98622.16;2613805;31;20077;-51
2022/11/17 11:33:04;;;;;;;7.80;3.40;;;;;;;11.66;100.00;98611.56;2608537;36;20034;-51
2022/11/17 11:35:44;;;;;;;11.68;2.58;;;;;;;11.58;100.00;98615.25;2605031;36;20035;-53
2022/11/17 11:38:29;;;;;;;6.82;2.80;;;;;;;11.43;100.00;98620.75;2604693;36;20069;-49
2022/11/17 11:41:11;;;;;;;3.80;1.90;;;;;;;11.43;100.00;98634.22;2606527;36;20035;-53
2022/11/17 11:43:50;;;;;;;6.32;2.45;;;;;;;11.74;100.00;98643.75;2607367;36;20435;-47
2022/11/17 11:46:23;;;;;;;7.78;3.15;;;;;;;11.80;100.00;98640.25;2607321;36;20062;-53
2022/11/17 11:49:01;;;;;;;14.32;3.70;;;;;;;11.65;100.00;98647.66;2607199;36;20045;-50
2022/11/17 11:51:40;;;;;;;7.20;2.80;;;;;;;11.40;100.00;98653.47;2608221;31;20030;-53
2022/11/17 11:54:16;;;;;;;6.00;2.42;;;;;;;11.54;100.00;98660.63;2606561;36;20061;-57
2022/11/17 11:56:47;;;;;;;5.40;2.60;;;;;;;11.72;100.00;98662.81;2611110;36;20042;-48
2022/11/17 11:59:20;;;;;;;8.10;2.13;;;;;;;11.65;100.00;98659.25;2615530;36;20041;-55
2022/11/17 12:01:54;;;;;;;4.38;1.90;;;;;;;11.47;100.00;98661.59;2615462;36;20037;-47
2022/11/17 12:04:34;;;;;;;9.85;2.20;;;;;;;11.84;100.00;98657.72;2614283;36;20031;-54
2022/11/17 12:07:15;;;;;;;5.15;3.00;;;;;;;11.87;100.00;98662.69;2614221;36;21533;-50
2022/11/17 12:09:54;;;;;;;7.57;3.40;;;;;;;11.62;100.00;98659.66;2607030;36;20057;-53
2022/11/17 12:12:30;;;;;;;6.63;3.45;;;;;;;11.67;100.00;98659.06;2615178;31;20023;-49
2022/11/17 12:15:29;;;;;;;7.10;2.60;;;;;;;11.80;100.00;98661.81;2613533;36;20030;-49
2022/11/17 12:18:01;;;;;;;6.47;2.53;;;;;;;11.97;100.00;98664.22;2609483;31;20563;-51